createdAt,value
2019-05-03T00:01:28.894Z,8.30
2019-05-03T00:04:00.262Z,8.30
2019-05-03T00:06:32.077Z,8.30
2019-05-03T00:09:02.370Z,8.20
2019-05-03T00:11:34.133Z,8.20
2019-05-03T00:14:04.445Z,8.20
2019-05-03T00:16:36.458Z,8.20
2019-05-03T00:19:07.605Z,8.20
2019-05-03T00:21:37.734Z,8.20
2019-05-03T00:24:07.961Z,8.20
2019-05-03T00:26:38.269Z,8.10
2019-05-03T00:29:08.434Z,8.10
2019-05-03T00:31:38.598Z,8.10
2019-05-03T00:34:12.475Z,8.10
2019-05-03T00:36:46.909Z,8.10
2019-05-03T00:39:28.106Z,8.10
2019-05-03T00:41:58.268Z,8.10
2019-05-03T00:44:28.560Z,8.00
2019-05-03T00:46:58.734Z,8.00
2019-05-03T00:49:28.847Z,8.00
2019-05-03T00:51:58.990Z,8.10
2019-05-03T00:54:29.034Z,8.10
2019-05-03T00:56:59.186Z,8.20
2019-05-03T00:59:29.390Z,8.20
2019-05-03T01:01:59.543Z,8.30
2019-05-03T01:04:31.666Z,8.40
2019-05-03T01:07:02.301Z,8.40
2019-05-03T01:09:33.820Z,8.50
2019-05-03T01:12:03.946Z,8.60
2019-05-03T01:14:35.430Z,8.60
2019-05-03T01:17:05.680Z,8.70
2019-05-03T01:19:35.802Z,8.70
2019-05-03T01:22:05.970Z,8.70
2019-05-03T01:24:36.105Z,8.80
2019-05-03T01:27:06.239Z,8.80
2019-05-03T01:29:36.365Z,8.80
2019-05-03T01:32:06.504Z,8.90
2019-05-03T01:34:36.767Z,8.90
2019-05-03T01:37:06.948Z,9.00
2019-05-03T01:39:37.006Z,9.00
2019-05-03T01:42:07.146Z,9.00
2019-05-03T01:44:37.225Z,9.00
2019-05-03T01:47:11.527Z,9.10
2019-05-03T01:49:57.750Z,9.10
2019-05-03T01:52:32.438Z,9.20
2019-05-03T01:55:03.303Z,9.20
2019-05-03T01:57:33.721Z,9.20
2019-05-03T02:00:04.239Z,9.30
2019-05-03T02:02:52.450Z,9.30
2019-05-03T02:05:32.056Z,9.30
2019-05-03T02:08:03.419Z,9.40
2019-05-03T02:10:33.575Z,9.40
2019-05-03T02:13:04.025Z,9.40
2019-05-03T02:15:34.164Z,9.50
2019-05-03T02:18:04.460Z,9.40
2019-05-03T02:20:34.647Z,9.50
2019-05-03T02:23:04.920Z,9.50
2019-05-03T02:25:35.151Z,9.50
2019-05-03T02:28:05.293Z,9.40
2019-05-03T02:30:35.408Z,9.40
2019-05-03T02:33:05.614Z,9.50
2019-05-03T02:35:35.738Z,9.50
2019-05-03T02:38:07.943Z,9.50
2019-05-03T02:40:38.054Z,9.50
2019-05-03T02:43:25.638Z,9.50
2019-05-03T02:46:11.413Z,9.50
2019-05-03T02:48:48.707Z,9.50
2019-05-03T02:51:18.759Z,9.60
2019-05-03T02:53:48.878Z,9.60
2019-05-03T02:56:22.582Z,9.70
2019-05-03T02:58:50.973Z,9.70
2019-05-03T03:01:22.397Z,9.80
2019-05-03T03:03:55.830Z,9.70
2019-05-03T03:06:27.037Z,9.70
2019-05-03T03:08:59.124Z,9.70
2019-05-03T03:11:35.412Z,9.70
2019-05-03T03:14:05.733Z,9.80
2019-05-03T03:16:37.288Z,9.80
2019-05-03T03:19:07.420Z,9.80
2019-05-03T03:21:41.929Z,9.80
2019-05-03T03:24:17.878Z,9.80
2019-05-03T03:26:49.562Z,9.80
2019-05-03T03:29:25.249Z,9.80
2019-05-03T03:32:02.659Z,9.80
2019-05-03T03:34:38.987Z,9.80
2019-05-03T03:37:10.573Z,9.70
2019-05-03T03:39:41.701Z,9.70
2019-05-03T03:42:12.856Z,9.70
2019-05-03T03:44:45.399Z,9.60
2019-05-03T03:47:16.687Z,9.60
2019-05-03T03:49:48.673Z,9.70
2019-05-03T03:52:20.966Z,9.60
2019-05-03T03:54:55.284Z,9.60
2019-05-03T03:57:26.539Z,9.60
2019-05-03T03:59:56.708Z,9.60
2019-05-03T04:02:27.170Z,9.50
2019-05-03T04:04:58.044Z,9.60
2019-05-03T04:07:28.488Z,9.50
2019-05-03T04:09:58.739Z,9.50
2019-05-03T04:12:28.987Z,9.40
2019-05-03T04:15:18.481Z,9.30
2019-05-03T04:18:16.173Z,9.30
2019-05-03T04:20:45.947Z,9.20
2019-05-03T04:23:16.604Z,9.20
2019-05-03T04:25:46.642Z,9.10
2019-05-03T04:28:17.431Z,9.10
2019-05-03T04:30:47.628Z,9.10
2019-05-03T04:33:17.786Z,9.00
2019-05-03T04:35:48.019Z,9.00
2019-05-03T04:38:18.157Z,8.90
2019-05-03T04:40:48.435Z,8.90
2019-05-03T04:43:18.544Z,8.80
2019-05-03T04:46:06.248Z,8.80
2019-05-03T04:48:36.046Z,8.80
2019-05-03T04:51:06.281Z,8.80
2019-05-03T04:53:39.293Z,8.80
2019-05-03T04:56:09.583Z,8.70
2019-05-03T04:58:39.807Z,8.70
2019-05-03T05:01:09.981Z,8.70
2019-05-03T05:03:40.142Z,8.70
2019-05-03T05:06:10.285Z,8.70
2019-05-03T05:08:40.481Z,8.70
2019-05-03T05:11:10.764Z,8.80
2019-05-03T05:13:41.011Z,8.80
2019-05-03T05:16:11.309Z,8.80
2019-05-03T05:18:46.783Z,8.80
2019-05-03T05:21:20.787Z,8.70
2019-05-03T05:23:59.119Z,8.70
2019-05-03T05:26:44.590Z,8.60
2019-05-03T05:29:16.450Z,8.60
2019-05-03T05:31:46.610Z,8.60
2019-05-03T05:34:16.711Z,8.40
2019-05-03T05:36:46.917Z,8.40
2019-05-03T05:39:18.838Z,8.40
2019-05-03T05:41:49.169Z,8.40
2019-05-03T05:44:19.298Z,8.40
2019-05-03T05:47:07.421Z,8.40
2019-05-03T05:50:05.014Z,8.40
2019-05-03T05:52:35.366Z,8.40
2019-05-03T05:55:25.333Z,8.40
2019-05-03T05:58:17.686Z,8.40
2019-05-03T06:01:00.370Z,8.50
2019-05-03T06:03:30.649Z,8.50
2019-05-03T06:06:05.269Z,8.60
2019-05-03T06:08:44.655Z,8.60
2019-05-03T06:11:22.745Z,8.70
2019-05-03T06:13:57.149Z,8.70
2019-05-03T06:16:38.243Z,8.80
2019-05-03T06:19:21.838Z,8.80
2019-05-03T06:22:20.054Z,8.80
2019-05-03T06:24:55.806Z,8.80
2019-05-03T06:27:34.725Z,8.80
2019-05-03T06:30:14.930Z,8.80
2019-05-03T06:32:45.153Z,8.70
2019-05-03T06:35:15.334Z,8.70
2019-05-03T06:37:46.145Z,8.70
2019-05-03T06:40:16.467Z,8.80
2019-05-03T06:42:54.563Z,8.80
2019-05-03T06:45:19.106Z,8.90
2019-05-03T06:47:50.051Z,8.80
2019-05-03T06:50:27.531Z,8.90
2019-05-03T06:52:54.796Z,8.90
2019-05-03T06:55:25.245Z,8.80
2019-05-03T06:57:55.359Z,8.80
2019-05-03T07:00:59.830Z,8.90
2019-05-03T07:03:47.091Z,8.90
2019-05-03T07:06:40.462Z,9.00
2019-05-03T07:09:16.718Z,8.80
2019-05-03T07:11:46.822Z,8.80
2019-05-03T07:14:16.946Z,8.80
2019-05-03T07:16:47.131Z,8.70
2019-05-03T07:19:17.226Z,8.60
2019-05-03T07:21:47.425Z,8.60
2019-05-03T07:24:17.565Z,8.60
2019-05-03T07:26:48.786Z,8.60
2019-05-03T07:29:18.902Z,8.60
2019-05-03T07:31:49.215Z,8.40
2019-05-03T07:34:19.458Z,8.50
2019-05-03T07:36:49.769Z,8.60
2019-05-03T07:39:19.887Z,8.80
2019-05-03T07:41:50.134Z,8.80
2019-05-03T07:44:20.251Z,8.70
2019-05-03T07:46:51.469Z,8.70
2019-05-03T07:49:21.968Z,8.80
2019-05-03T07:51:55.326Z,8.80
2019-05-03T07:54:25.641Z,8.60
2019-05-03T07:57:00.871Z,8.60
2019-05-03T07:59:31.014Z,8.50
2019-05-03T08:02:01.165Z,8.50
2019-05-03T08:04:32.354Z,8.50
2019-05-03T08:07:04.410Z,8.50
2019-05-03T08:09:35.068Z,8.60
2019-05-03T08:12:05.501Z,8.60
2019-05-03T08:14:35.820Z,8.70
2019-05-03T08:17:06.102Z,8.80
2019-05-03T08:19:36.247Z,8.70
2019-05-03T08:22:06.411Z,8.80
2019-05-03T08:24:36.598Z,8.80
2019-05-03T08:27:06.793Z,8.90
2019-05-03T08:29:36.942Z,8.90
2019-05-03T08:32:29.245Z,9.10
2019-05-03T08:35:35.423Z,9.10
2019-05-03T08:38:05.582Z,9.20
2019-05-03T08:40:41.209Z,9.20
2019-05-03T08:43:11.555Z,9.30
2019-05-03T08:45:41.678Z,9.40
2019-05-03T08:48:11.901Z,9.60
2019-05-03T08:50:42.114Z,9.80
2019-05-03T08:53:15.618Z,10.00
2019-05-03T08:55:45.105Z,10.80
2019-05-03T08:58:15.575Z,11.70
2019-05-03T09:00:45.957Z,12.00
2019-05-03T09:03:16.146Z,12.00
2019-05-03T09:05:46.589Z,12.00
2019-05-03T09:08:16.857Z,12.00
2019-05-03T09:10:54.525Z,11.80
2019-05-03T09:13:25.235Z,11.20
2019-05-03T09:15:55.585Z,11.20
2019-05-03T09:18:25.977Z,11.10
2019-05-03T09:20:56.274Z,11.30
2019-05-03T09:23:26.437Z,12.00
2019-05-03T09:25:56.614Z,12.70
2019-05-03T09:28:29.188Z,13.40
2019-05-03T09:30:58.637Z,13.30
2019-05-03T09:33:28.791Z,13.50
2019-05-03T09:35:58.955Z,14.10
2019-05-03T09:38:29.102Z,14.20
2019-05-03T09:40:59.202Z,14.40
2019-05-03T09:43:29.343Z,14.50
2019-05-03T09:45:59.467Z,13.90
2019-05-03T09:48:29.538Z,13.50
2019-05-03T09:50:59.776Z,13.30
2019-05-03T09:53:35.179Z,13.30
2019-05-03T09:56:05.421Z,13.10
2019-05-03T09:58:38.135Z,12.60
2019-05-03T10:01:08.571Z,12.20
2019-05-03T10:03:39.038Z,13.00
2019-05-03T10:06:09.222Z,14.00
2019-05-03T10:08:39.523Z,14.40
2019-05-03T10:11:15.192Z,14.70
2019-05-03T10:13:48.258Z,14.90
2019-05-03T10:16:17.107Z,14.90
2019-05-03T10:18:47.332Z,14.20
2019-05-03T10:21:17.570Z,13.80
2019-05-03T10:23:47.707Z,13.20
2019-05-03T10:26:17.911Z,12.60
2019-05-03T10:28:48.036Z,12.50
2019-05-03T10:31:18.161Z,12.30
2019-05-03T10:33:56.803Z,12.60
2019-05-03T10:36:27.039Z,12.70
2019-05-03T10:38:57.233Z,13.10
2019-05-03T10:41:27.463Z,14.00
2019-05-03T10:43:57.670Z,14.60
2019-05-03T10:46:27.794Z,14.90
2019-05-03T10:48:58.019Z,15.60
2019-05-03T10:51:30.238Z,15.90
2019-05-03T10:54:01.321Z,16.30
2019-05-03T10:56:38.911Z,16.90
2019-05-03T10:59:10.078Z,16.90
2019-05-03T11:01:59.271Z,16.70
2019-05-03T11:04:30.237Z,15.50
2019-05-03T11:07:00.441Z,15.60
2019-05-03T11:09:30.674Z,15.80
2019-05-03T11:12:02.695Z,16.50
2019-05-03T11:14:35.042Z,16.60
2019-05-03T11:17:05.647Z,16.30
2019-05-03T11:19:37.147Z,16.50
2019-05-03T11:22:07.286Z,15.60
2019-05-03T11:24:37.522Z,15.00
2019-05-03T11:27:13.181Z,14.80
2019-05-03T11:29:45.006Z,15.50
2019-05-03T11:32:40.488Z,16.10
2019-05-03T11:35:44.871Z,15.90
2019-05-03T11:38:21.134Z,15.90
2019-05-03T11:40:52.401Z,16.10
2019-05-03T11:43:24.743Z,16.10
2019-05-03T11:45:56.099Z,15.30
2019-05-03T11:48:26.271Z,13.60
2019-05-03T11:50:56.451Z,13.10
2019-05-03T11:53:26.646Z,13.20
2019-05-03T11:55:57.578Z,13.80
2019-05-03T11:58:28.807Z,14.60
2019-05-03T12:01:13.130Z,15.40
2019-05-03T12:03:48.860Z,15.80
2019-05-03T12:06:19.229Z,14.80
2019-05-03T12:08:49.401Z,15.50
2019-05-03T12:11:19.613Z,16.00
2019-05-03T12:14:01.706Z,16.50
2019-05-03T12:16:59.932Z,16.60
2019-05-03T12:18:56.022Z,16.90
2019-05-03T12:21:28.209Z,16.90
2019-05-03T12:23:59.056Z,17.50
2019-05-03T12:26:40.763Z,17.30
2019-05-03T12:29:01.735Z,17.50
2019-05-03T12:31:36.892Z,16.80
2019-05-03T12:34:05.828Z,16.30
2019-05-03T12:36:38.928Z,16.60
2019-05-03T12:39:23.120Z,17.10
2019-05-03T12:41:40.322Z,16.50
2019-05-03T12:44:10.620Z,16.30
2019-05-03T12:46:40.798Z,16.80
2019-05-03T12:49:10.885Z,17.10
2019-05-03T12:51:41.037Z,16.70
2019-05-03T12:54:11.190Z,16.60
2019-05-03T12:56:41.407Z,16.40
2019-05-03T12:59:35.874Z,16.10
2019-05-03T13:02:15.481Z,15.60
2019-05-03T13:04:46.151Z,15.70
2019-05-03T13:07:25.826Z,16.50
2019-05-03T13:09:56.008Z,17.00
2019-05-03T13:12:27.923Z,16.50
2019-05-03T13:14:58.190Z,16.30
2019-05-03T13:17:38.074Z,16.60
2019-05-03T13:20:10.173Z,16.30
2019-05-03T13:22:40.469Z,16.80
2019-05-03T13:25:12.732Z,16.00
2019-05-03T13:27:42.926Z,16.20
2019-05-03T13:30:15.896Z,15.40
2019-05-03T13:32:46.273Z,14.80
2019-05-03T13:35:16.498Z,14.50
2019-05-03T13:37:47.005Z,15.40
2019-05-03T13:40:17.244Z,15.40
2019-05-03T13:42:56.055Z,15.30
2019-05-03T13:45:19.309Z,15.20
2019-05-03T13:47:49.439Z,15.00
2019-05-03T13:50:19.623Z,15.20
2019-05-03T13:52:49.726Z,15.50
2019-05-03T13:55:19.815Z,15.30
2019-05-03T13:57:49.874Z,15.10
2019-05-03T14:00:20.319Z,15.00
2019-05-03T14:02:51.541Z,14.70
2019-05-03T14:05:21.739Z,14.40
2019-05-03T14:07:51.917Z,14.10
2019-05-03T14:10:22.038Z,14.30
2019-05-03T14:12:52.562Z,14.40
2019-05-03T14:15:22.877Z,14.30
2019-05-03T14:17:54.682Z,14.10
2019-05-03T14:20:42.669Z,14.20
2019-05-03T14:23:14.801Z,14.20
2019-05-03T14:25:46.223Z,14.10
2019-05-03T14:28:16.413Z,14.60
2019-05-03T14:30:46.611Z,14.80
2019-05-03T14:33:16.921Z,14.60
2019-05-03T14:35:47.110Z,14.40
2019-05-03T14:38:20.038Z,14.40
2019-05-03T14:40:50.189Z,14.20
2019-05-03T14:43:20.357Z,13.90
2019-05-03T14:45:50.486Z,14.00
2019-05-03T14:48:20.664Z,14.20
2019-05-03T14:50:50.789Z,13.80
2019-05-03T14:53:20.988Z,13.60
2019-05-03T14:55:57.013Z,13.60
2019-05-03T14:59:04.594Z,13.40
2019-05-03T15:01:50.606Z,13.60
2019-05-03T15:04:20.804Z,13.90
2019-05-03T15:06:51.025Z,13.50
2019-05-03T15:09:21.303Z,13.20
2019-05-03T15:11:52.031Z,13.20
2019-05-03T15:14:22.218Z,13.00
2019-05-03T15:16:52.419Z,12.90
2019-05-03T15:19:22.566Z,13.00
2019-05-03T15:21:54.632Z,12.80
2019-05-03T15:24:25.231Z,12.80
2019-05-03T15:26:55.481Z,13.00
2019-05-03T15:29:25.669Z,12.80
2019-05-03T15:31:55.806Z,13.00
2019-05-03T15:34:25.882Z,13.50
2019-05-03T15:36:56.126Z,14.10
2019-05-03T15:39:26.386Z,14.10
2019-05-03T15:41:56.800Z,13.90
2019-05-03T15:44:58.350Z,13.80
2019-05-03T15:47:32.820Z,14.00
2019-05-03T15:50:04.754Z,14.00
2019-05-03T15:52:35.346Z,14.00
2019-05-03T15:55:06.396Z,13.80
2019-05-03T15:57:37.739Z,13.70
2019-05-03T16:00:09.490Z,13.20
2019-05-03T16:02:41.281Z,12.90
2019-05-03T16:05:15.450Z,12.90
2019-05-03T16:07:45.403Z,13.20
2019-05-03T16:10:15.658Z,13.20
2019-05-03T16:12:45.962Z,13.10
2019-05-03T16:15:16.102Z,12.90
2019-05-03T16:17:46.315Z,12.70
2019-05-03T16:20:17.085Z,12.70
2019-05-03T16:22:47.323Z,12.80
2019-05-03T16:25:17.522Z,12.70
2019-05-03T16:28:06.665Z,12.70
2019-05-03T16:30:46.114Z,12.70
2019-05-03T16:33:26.089Z,12.50
2019-05-03T16:35:48.078Z,12.50
2019-05-03T16:38:18.231Z,12.40
2019-05-03T16:40:48.429Z,12.40
2019-05-03T16:43:18.615Z,12.20
2019-05-03T16:45:48.818Z,12.10
2019-05-03T16:48:18.972Z,12.00
2019-05-03T16:50:49.213Z,12.00
2019-05-03T16:53:19.518Z,11.80
2019-05-03T16:55:49.697Z,11.80
2019-05-03T16:58:19.931Z,11.70
2019-05-03T17:00:50.166Z,11.80
2019-05-03T17:03:38.163Z,11.80
2019-05-03T17:06:27.635Z,11.70
2019-05-03T17:09:26.279Z,11.60
2019-05-03T17:12:25.962Z,11.60
2019-05-03T17:14:57.092Z,11.60
2019-05-03T17:17:27.485Z,11.60
2019-05-03T17:19:57.678Z,11.60
2019-05-03T17:22:28.027Z,11.60
2019-05-03T17:24:58.267Z,11.50
2019-05-03T17:27:28.433Z,11.50
2019-05-03T17:29:58.751Z,11.50
2019-05-03T17:32:28.957Z,11.60
2019-05-03T17:34:59.163Z,11.50
2019-05-03T17:37:29.585Z,11.50
2019-05-03T17:40:17.408Z,11.40
2019-05-03T17:43:16.075Z,11.40
2019-05-03T17:45:49.112Z,11.30
2019-05-03T17:48:19.299Z,11.30
2019-05-03T17:50:49.467Z,11.20
2019-05-03T17:53:38.582Z,11.10
2019-05-03T17:56:24.418Z,11.00
2019-05-03T17:58:57.851Z,10.90
2019-05-03T18:01:49.829Z,10.70
2019-05-03T18:04:37.675Z,10.60
2019-05-03T18:07:35.703Z,10.50
2019-05-03T18:10:06.851Z,10.40
2019-05-03T18:12:38.144Z,10.30
2019-05-03T18:15:08.807Z,10.30
2019-05-03T18:17:41.694Z,10.20
2019-05-03T18:20:14.940Z,10.20
2019-05-03T18:22:44.846Z,10.20
2019-05-03T18:25:15.022Z,10.10
2019-05-03T18:27:45.243Z,10.00
2019-05-03T18:30:15.587Z,10.00
2019-05-03T18:32:45.790Z,9.90
2019-05-03T18:35:15.938Z,9.90
2019-05-03T18:37:52.530Z,9.80
2019-05-03T18:40:24.734Z,9.80
2019-05-03T18:42:57.891Z,9.70
2019-05-03T18:45:45.805Z,9.60
2019-05-03T18:48:15.982Z,9.50
2019-05-03T18:50:46.110Z,9.50
2019-05-03T18:53:16.269Z,9.40
2019-05-03T18:55:46.449Z,9.30
2019-05-03T18:58:16.600Z,9.20
2019-05-03T19:00:47.362Z,9.20
2019-05-03T19:03:17.528Z,9.20
2019-05-03T19:05:49.352Z,9.10
2019-05-03T19:08:47.777Z,9.00
2019-05-03T19:11:27.689Z,9.00
2019-05-03T19:14:01.365Z,8.80
2019-05-03T19:16:52.169Z,8.70
2019-05-03T19:19:25.128Z,8.70
2019-05-03T19:21:56.065Z,8.60
2019-05-03T19:24:26.364Z,8.50
2019-05-03T19:26:56.738Z,8.40
2019-05-03T19:29:26.850Z,8.30
2019-05-03T19:31:57.074Z,8.30
2019-05-03T19:34:27.261Z,8.20
2019-05-03T19:36:57.437Z,8.10
2019-05-03T19:39:28.759Z,8.00
2019-05-03T19:41:58.893Z,7.90
2019-05-03T19:44:29.162Z,7.90
2019-05-03T19:46:59.402Z,7.90
2019-05-03T19:49:29.566Z,7.90
2019-05-03T19:51:59.803Z,7.80
2019-05-03T19:54:30.096Z,7.80
2019-05-03T19:57:00.735Z,7.80
2019-05-03T19:59:48.889Z,7.70
2019-05-03T20:02:36.634Z,7.60
2019-05-03T20:05:25.292Z,7.60
2019-05-03T20:08:09.075Z,7.60
2019-05-03T20:10:39.343Z,7.50
2019-05-03T20:13:09.666Z,7.40
2019-05-03T20:15:39.857Z,7.30
2019-05-03T20:18:11.083Z,7.30
2019-05-03T20:20:41.382Z,7.20
2019-05-03T20:23:11.538Z,7.20
2019-05-03T20:25:41.709Z,7.20
2019-05-03T20:28:11.932Z,7.10
2019-05-03T20:30:42.206Z,7.00
2019-05-03T20:33:12.679Z,7.00
2019-05-03T20:35:44.987Z,6.90
2019-05-03T20:38:15.336Z,6.90
2019-05-03T20:40:45.638Z,6.90
2019-05-03T20:43:35.131Z,6.80
2019-05-03T20:46:11.919Z,6.90
2019-05-03T20:48:44.771Z,6.80
2019-05-03T20:51:15.174Z,6.70
2019-05-03T20:53:45.369Z,6.70
2019-05-03T20:56:15.537Z,6.80
2019-05-03T20:58:45.681Z,6.70
2019-05-03T21:01:15.973Z,6.70
2019-05-03T21:03:46.274Z,6.80
2019-05-03T21:06:16.314Z,6.80
2019-05-03T21:08:52.963Z,6.80
2019-05-03T21:11:18.238Z,6.70
2019-05-03T21:13:48.395Z,6.70
2019-05-03T21:16:37.030Z,6.70
2019-05-03T21:19:24.857Z,6.60
2019-05-03T21:22:01.903Z,6.60
2019-05-03T21:24:42.955Z,6.50
2019-05-03T21:27:14.169Z,6.40
2019-05-03T21:29:54.808Z,6.30
2019-05-03T21:32:25.106Z,6.30
2019-05-03T21:34:56.606Z,6.20
2019-05-03T21:37:26.698Z,6.20
2019-05-03T21:39:56.832Z,6.20
2019-05-03T21:42:27.011Z,6.00
2019-05-03T21:44:57.274Z,5.90
2019-05-03T21:47:58.456Z,5.60
2019-05-03T21:50:28.645Z,5.60
2019-05-03T21:53:05.819Z,5.60
2019-05-03T21:55:36.222Z,5.50
2019-05-03T21:58:06.357Z,5.50
2019-05-03T22:01:00.462Z,5.60
2019-05-03T22:03:32.267Z,5.60
2019-05-03T22:06:02.555Z,5.60
2019-05-03T22:08:32.735Z,5.60
2019-05-03T22:11:02.954Z,5.70
2019-05-03T22:13:34.874Z,5.60
2019-05-03T22:16:24.619Z,5.60
2019-05-03T22:18:54.933Z,5.60
2019-05-03T22:21:45.266Z,5.70
2019-05-03T22:24:42.184Z,5.70
2019-05-03T22:27:16.176Z,5.70
2019-05-03T22:29:46.337Z,5.70
2019-05-03T22:32:16.483Z,5.70
2019-05-03T22:34:46.669Z,5.70
2019-05-03T22:37:16.799Z,5.70
2019-05-03T22:39:48.073Z,5.70
2019-05-03T22:42:18.849Z,5.70
2019-05-03T22:44:48.997Z,5.70
2019-05-03T22:47:19.143Z,5.70
2019-05-03T22:49:49.187Z,5.50
2019-05-03T22:52:19.327Z,5.40
2019-05-03T22:54:49.658Z,5.20
2019-05-03T22:57:19.801Z,5.10
2019-05-03T22:59:49.929Z,5.20
2019-05-03T23:02:20.120Z,5.20
2019-05-03T23:04:50.413Z,5.20
2019-05-03T23:07:20.648Z,5.20
2019-05-03T23:09:50.883Z,5.10
2019-05-03T23:12:21.110Z,4.70
2019-05-03T23:14:51.249Z,4.70
2019-05-03T23:17:21.412Z,4.60
2019-05-03T23:19:56.655Z,4.70
2019-05-03T23:22:29.672Z,4.70
2019-05-03T23:24:59.797Z,4.70
2019-05-03T23:27:29.933Z,4.60
2019-05-03T23:30:00.029Z,4.70
2019-05-03T23:32:30.203Z,4.80
2019-05-03T23:35:00.385Z,4.90
2019-05-03T23:37:30.672Z,4.90
2019-05-03T23:40:00.818Z,4.90
2019-05-03T23:42:30.894Z,4.90
2019-05-03T23:45:02.452Z,4.90
2019-05-03T23:47:42.415Z,4.90
2019-05-03T23:50:17.164Z,5.00
2019-05-03T23:52:47.401Z,5.00
2019-05-03T23:55:26.181Z,4.90
2019-05-03T23:57:56.321Z,5.00
